Time;durP1;ratioP1;P1;durP2;ratioP2;P2;SDS_P1;SDS_P2;PMS_P1;PMS_P2;Temp;Humidity;BMP_temperature;BMP_pressure;BME280_temperature;BME280_humidity;BME280_pressure;Samples;Min_cycle;Max_cycle;Signal;HPM_P1;HPM_P2
2022/10/03 00:01:46;;;;;;;3.95;1.50;;;;;;;14.03;100.00;100908.03;5037718;28;20037;-84
2022/10/03 00:04:30;;;;;;;3.60;1.73;;;;;;;14.12;100.00;100926.28;5027020;28;20481;-86
2022/10/03 00:07:17;;;;;;;5.68;2.28;;;;;;;14.19;100.00;100927.28;5010976;28;20040;-88
2022/10/03 00:09:55;;;;;;;2.72;1.83;;;;;;;14.25;100.00;100933.69;5010687;28;20044;-87
2022/10/03 00:12:20;;;;;;;4.95;1.73;;;;;;;14.25;100.00;100926.66;5010783;28;20111;-87
2022/10/03 00:14:53;;;;;;;4.47;2.00;;;;;;;14.19;100.00;100922.03;5023902;28;20069;-87
2022/10/03 00:17:44;;;;;;;3.60;1.60;;;;;;;14.09;100.00;100920.53;5015043;28;20033;-85
2022/10/03 00:20:12;;;;;;;3.97;2.78;;;;;;;13.99;100.00;100923.25;5013081;28;20099;-84
2022/10/03 00:22:37;;;;;;;6.72;2.95;;;;;;;13.89;100.00;100920.75;5039434;28;20062;-86
2022/10/03 00:25:16;;;;;;;6.60;4.05;;;;;;;13.74;100.00;100924.06;5028469;28;20037;-87
2022/10/03 00:28:05;;;;;;;5.55;3.33;;;;;;;13.62;100.00;100918.28;5016953;28;20054;-83
2022/10/03 00:30:53;;;;;;;7.70;4.10;;;;;;;13.66;100.00;100918.81;5019549;28;20041;-87
2022/10/03 00:33:30;;;;;;;6.38;3.38;;;;;;;14.00;100.00;100919.66;5030750;28;20055;-83
2022/10/03 00:36:44;;;;;;;4.07;3.15;;;;;;;14.09;100.00;100918.72;5015617;28;20481;-88
2022/10/03 00:39:29;;;;;;;6.55;3.47;;;;;;;13.99;100.00;100923.25;5031816;28;20036;-86
2022/10/03 00:42:21;;;;;;;3.85;3.55;;;;;;;13.98;100.00;100912.94;5032736;28;20123;-88
2022/10/03 00:45:09;;;;;;;4.85;3.80;;;;;;;14.02;100.00;100911.66;5022470;28;20140;-88
2022/10/03 00:47:40;;;;;;;4.35;3.45;;;;;;;14.08;100.00;100911.84;5036146;28;20504;-86
2022/10/03 00:50:21;;;;;;;4.75;3.85;;;;;;;14.08;100.00;100909.22;5037944;28;20059;-89
2022/10/03 00:53:03;;;;;;;4.18;2.88;;;;;;;14.13;100.00;100899.09;5035626;28;20240;-90
2022/10/03 00:55:34;;;;;;;4.85;2.72;;;;;;;14.15;100.00;100893.69;5037249;28;20056;-86
2022/10/03 00:58:50;;;;;;;5.20;2.97;;;;;;;14.05;100.00;100885.13;5044135;28;20516;-87
2022/10/03 01:01:35;;;;;;;3.92;2.58;;;;;;;13.91;100.00;100868.19;5033661;28;20413;-87
2022/10/03 01:04:26;;;;;;;4.65;2.50;;;;;;;13.78;100.00;100868.63;5037097;28;20121;-87
2022/10/03 01:07:15;;;;;;;6.57;2.75;;;;;;;13.61;100.00;100861.66;5019747;28;20511;-87
2022/10/03 01:09:50;;;;;;;5.72;3.13;;;;;;;13.54;100.00;100856.22;5034723;28;20110;-88
2022/10/03 01:12:38;;;;;;;6.40;2.88;;;;;;;13.49;100.00;100860.28;5036243;28;20461;-87
2022/10/03 01:15:38;;;;;;;4.20;2.33;;;;;;;13.37;100.00;100854.47;5027092;28;20080;-90
2022/10/03 01:18:19;;;;;;;8.77;2.90;;;;;;;13.27;100.00;100864.19;5037295;28;20041;-91
2022/10/03 01:20:53;;;;;;;5.68;2.83;;;;;;;13.21;100.00;100880.53;5021464;28;20037;-88
2022/10/03 01:23:25;;;;;;;3.85;3.35;;;;;;;13.16;100.00;100877.53;5022407;28;20034;-88
2022/10/03 01:26:12;;;;;;;4.13;3.03;;;;;;;13.25;100.00;100869.56;5029376;28;20041;-87
2022/10/03 01:31:49;;;;;;;7.47;3.60;;;;;;;13.24;100.00;100867.09;5046277;28;20083;-87
2022/10/03 01:34:24;;;;;;;4.30;3.13;;;;;;;13.32;100.00;100872.41;5044807;28;20075;-83
2022/10/03 01:37:05;;;;;;;4.47;3.30;;;;;;;13.41;100.00;100883.75;5039501;28;20025;-87
2022/10/03 01:39:52;;;;;;;4.03;2.60;;;;;;;13.36;100.00;100886.84;5041615;28;20040;-87
2022/10/03 01:42:51;;;;;;;3.80;2.90;;;;;;;13.26;100.00;100883.47;5031222;28;20128;-83
2022/10/03 01:45:30;;;;;;;5.28;3.05;;;;;;;13.21;100.00;100885.75;5029867;28;20497;-87
2022/10/03 01:48:04;;;;;;;5.32;3.10;;;;;;;13.14;100.00;100889.91;5019070;28;20029;-84
2022/10/03 01:50:30;;;;;;;3.97;3.17;;;;;;;13.18;100.00;100881.66;5039516;28;20033;-87
2022/10/03 01:53:18;;;;;;;2.88;2.55;;;;;;;13.32;100.00;100871.59;5039095;28;20029;-85
2022/10/03 01:56:05;;;;;;;5.07;2.92;;;;;;;13.42;100.00;100865.28;5049328;28;20163;-84
2022/10/03 01:59:12;;;;;;;3.85;3.17;;;;;;;13.45;100.00;100872.00;5051148;28;20086;-85
2022/10/03 02:01:46;;;;;;;3.95;3.00;;;;;;;13.47;100.00;100870.06;4939666;28;20080;-85
2022/10/03 02:04:27;;;;;;;8.73;3.20;;;;;;;13.54;100.00;100866.69;4930119;29;20070;-86
2022/10/03 02:07:04;;;;;;;3.58;2.15;;;;;;;13.58;100.00;100869.81;4947528;29;20054;-84
2022/10/03 02:09:49;;;;;;;6.65;2.00;;;;;;;13.59;100.00;100874.91;4949881;29;20043;-85
2022/10/03 02:12:29;;;;;;;3.38;1.80;;;;;;;13.69;100.00;100879.22;4938172;29;20050;-85
2022/10/03 02:15:19;;;;;;;4.07;1.73;;;;;;;13.74;100.00;100872.50;4917384;29;20134;-90
2022/10/03 02:18:15;;;;;;;5.78;1.88;;;;;;;13.71;100.00;100879.84;4934711;29;20095;-88
2022/10/03 02:20:56;;;;;;;4.20;2.30;;;;;;;13.70;100.00;100879.06;4931344;29;20042;-87
2022/10/03 02:23:30;;;;;;;4.10;2.35;;;;;;;13.66;100.00;100882.16;4930476;29;20070;-88
2022/10/03 02:26:43;;;;;;;5.40;2.95;;;;;;;13.51;100.00;100879.25;4949962;28;20050;-90
2022/10/03 02:29:27;;;;;;;5.25;3.50;;;;;;;13.46;100.00;100878.91;4918975;29;20081;-88
2022/10/03 02:32:30;;;;;;;5.15;3.13;;;;;;;13.36;100.00;100888.63;4960172;28;20058;-89
2022/10/03 02:35:27;;;;;;;8.60;3.25;;;;;;;13.33;100.00;100879.28;5029729;28;20032;-82
2022/10/03 02:38:08;;;;;;;;;;;;;;;13.31;100.00;100886.47;5012815;28;20442;-86
2022/10/03 02:41:12;;;;;;;4.78;2.80;;;;;;;13.32;100.00;100875.03;5036534;28;19924;-86
2022/10/03 02:43:50;;;;;;;7.47;2.50;;;;;;;13.40;100.00;100875.09;5029827;28;20299;-86
2022/10/03 02:46:18;;;;;;;2.88;2.58;;;;;;;13.45;100.00;100872.00;5034283;28;20072;-84
2022/10/03 02:49:01;;;;;;;3.88;1.67;;;;;;;13.52;100.00;100881.72;5032421;28;20034;-86
2022/10/03 02:51:43;;;;;;;3.35;1.48;;;;;;;13.55;100.00;100876.19;5011281;28;20052;-87
2022/10/03 02:54:27;;;;;;;3.05;1.40;;;;;;;13.53;100.00;100870.28;5027397;28;20101;-85
2022/10/03 02:57:07;;;;;;;3.20;1.48;;;;;;;13.48;100.00;100872.53;5044679;28;20408;-84
2022/10/03 03:00:06;;;;;;;4.35;1.67;;;;;;;13.39;100.00;100881.28;5048945;28;20033;-85
2022/10/03 03:02:40;;;;;;;5.65;1.85;;;;;;;13.27;100.00;100892.97;5039808;28;20099;-85
2022/10/03 03:05:31;;;;;;;3.45;2.67;;;;;;;13.11;100.00;100892.84;5014652;28;20028;-86
2022/10/03 03:08:19;;;;;;;2.97;1.80;;;;;;;13.01;100.00;100879.81;5047720;28;20041;-90
2022/10/03 03:11:15;;;;;;;6.95;2.75;;;;;;;12.90;100.00;100878.25;5050170;28;20041;-87
2022/10/03 03:13:52;;;;;;;;;;;;;;;12.71;100.00;100873.19;5030873;28;20032;-87
2022/10/03 03:16:55;;;;;;;4.03;2.17;;;;;;;12.61;100.00;100873.25;5031402;28;20334;-85
2022/10/03 03:19:43;;;;;;;3.72;2.30;;;;;;;12.60;100.00;100876.00;5041198;28;20037;-87
2022/10/03 03:22:40;;;;;;;4.78;3.00;;;;;;;12.55;100.00;100881.66;5015244;28;20092;-88
2022/10/03 03:25:31;;;;;;;6.13;2.80;;;;;;;12.51;100.00;100885.53;5029208;28;20033;-87
2022/10/03 03:28:11;;;;;;;6.03;2.67;;;;;;;12.47;100.00;100888.59;5029390;28;20044;-85
2022/10/03 03:30:47;;;;;;;7.97;2.85;;;;;;;12.43;100.00;100882.84;5043787;28;20040;-87
2022/10/03 03:33:22;;;;;;;7.00;3.13;;;;;;;12.42;100.00;100890.81;5048311;28;20627;-87
2022/10/03 03:36:16;;;;;;;6.22;3.13;;;;;;;12.40;100.00;100890.16;5038435;28;20107;-86
2022/10/03 03:39:16;;;;;;;4.38;3.00;;;;;;;12.61;100.00;100903.78;5023018;28;20114;-84
2022/10/03 03:42:16;;;;;;;4.00;3.08;;;;;;;12.90;100.00;100896.56;5023314;28;20056;-85
2022/10/03 03:45:09;;;;;;;5.25;3.17;;;;;;;12.99;100.00;100899.25;4997891;28;20124;-89
2022/10/03 03:48:00;;;;;;;9.45;3.30;;;;;;;13.00;100.00;100903.50;5030968;28;20032;-88
2022/10/03 03:50:47;;;;;;;3.63;2.10;;;;;;;13.02;100.00;100907.63;5030750;28;20068;-89
2022/10/03 03:53:30;;;;;;;4.07;2.25;;;;;;;13.11;100.00;100906.72;5042676;28;20060;-85
2022/10/03 03:56:08;;;;;;;3.42;2.22;;;;;;;13.15;100.00;100907.25;5029981;28;20033;-84
2022/10/03 03:59:02;;;;;;;4.55;1.80;;;;;;;13.09;100.00;100910.47;5033192;28;20119;-88
2022/10/03 04:01:35;;;;;;;4.65;2.58;;;;;;;13.08;100.00;100919.28;5010513;28;20044;-86
2022/10/03 04:04:19;;;;;;;5.15;1.95;;;;;;;13.13;100.00;100920.50;5028273;28;20033;-88
2022/10/03 04:07:18;;;;;;;3.60;2.17;;;;;;;13.12;100.00;100928.47;5027589;28;20146;-86
2022/10/03 04:10:10;;;;;;;2.00;1.75;;;;;;;13.13;100.00;100924.91;5003034;28;20497;-87
2022/10/03 04:13:06;;;;;;;2.35;1.63;;;;;;;13.12;100.00;100929.31;5013695;28;20132;-86
2022/10/03 04:16:01;;;;;;;3.13;1.40;;;;;;;13.12;100.00;100933.72;5029043;28;20033;-87
2022/10/03 04:18:59;;;;;;;2.85;1.50;;;;;;;13.03;100.00;100929.38;5011805;28;20038;-85
2022/10/03 04:21:34;;;;;;;2.65;1.70;;;;;;;13.02;100.00;100931.16;5011187;28;20433;-87
2022/10/03 04:24:26;;;;;;;4.30;1.60;;;;;;;13.07;100.00;100930.72;5030295;28;20091;-85
2022/10/03 04:26:51;;;;;;;6.55;1.92;;;;;;;13.15;100.00;100929.00;5030210;28;20448;-85
2022/10/03 04:29:29;;;;;;;3.97;1.27;;;;;;;13.15;100.00;100936.03;5028110;28;20117;-85
2022/10/03 04:32:13;;;;;;;4.60;1.30;;;;;;;13.17;100.00;100932.34;5029056;28;20111;-87
2022/10/03 04:35:04;;;;;;;4.13;0.90;;;;;;;13.18;100.00;100928.75;5011109;28;20030;-87
2022/10/03 04:37:47;;;;;;;4.15;1.10;;;;;;;13.19;100.00;100924.34;5028567;28;20041;-87
2022/10/03 04:40:41;;;;;;;3.15;1.00;;;;;;;13.15;100.00;100925.56;5030135;28;20037;-85
2022/10/03 04:43:12;;;;;;;3.95;1.50;;;;;;;13.13;100.00;100924.91;5015069;28;20103;-87
2022/10/03 04:45:44;;;;;;;2.75;1.17;;;;;;;13.00;100.00;100927.88;5011120;28;20132;-88
2022/10/03 04:48:21;;;;;;;3.22;1.00;;;;;;;12.81;100.00;100920.97;5028691;28;20041;-86
2022/10/03 04:50:56;;;;;;;4.40;1.80;;;;;;;12.64;100.00;100921.78;5035399;28;20056;-91
2022/10/03 04:53:21;;;;;;;2.30;1.20;;;;;;;12.51;100.00;100922.13;5031389;28;20025;-89
2022/10/03 04:55:54;;;;;;;3.67;1.27;;;;;;;12.52;100.00;100925.56;5049031;28;20033;-88
2022/10/03 04:58:46;;;;;;;6.65;1.83;;;;;;;12.52;100.00;100931.63;5027346;28;20115;-88
2022/10/03 05:01:48;;;;;;;2.58;1.65;;;;;;;12.47;100.00;100930.41;5028853;28;20126;-88
2022/10/03 05:04:28;;;;;;;3.17;1.70;;;;;;;12.45;100.00;100929.72;5020496;28;20481;-89
2022/10/03 05:07:29;;;;;;;4.00;1.65;;;;;;;12.39;100.00;100930.31;5039998;28;20439;-87
2022/10/03 05:10:14;;;;;;;2.85;1.60;;;;;;;12.31;100.00;100944.09;5014799;28;20149;-85
2022/10/03 05:13:15;;;;;;;2.90;1.48;;;;;;;12.21;100.00;100944.16;5010980;28;20033;-87
2022/10/03 05:15:49;;;;;;;3.55;1.45;;;;;;;12.30;100.00;100951.09;4928856;29;20077;-87
2022/10/03 05:18:31;;;;;;;3.33;1.75;;;;;;;12.35;100.00;100952.47;4913362;29;20031;-86
2022/10/03 05:21:11;;;;;;;3.58;1.85;;;;;;;12.34;100.00;100951.66;4944244;28;20490;-86
2022/10/03 05:23:45;;;;;;;7.68;1.88;;;;;;;12.57;100.00;100957.31;4951669;29;20559;-88
2022/10/03 05:26:27;;;;;;;9.02;2.05;;;;;;;12.69;100.00;100964.00;4932885;29;20046;-88
2022/10/03 05:29:11;;;;;;;5.72;1.50;;;;;;;12.77;100.00;100977.16;4917095;29;20509;-88
2022/10/03 05:31:51;;;;;;;4.32;1.90;;;;;;;12.87;100.00;100979.72;4933284;29;20556;-89
2022/10/03 05:34:26;;;;;;;4.55;1.50;;;;;;;12.93;100.00;100985.19;4932327;29;20058;-88
2022/10/03 05:37:19;;;;;;;3.97;2.00;;;;;;;12.91;100.00;100984.50;4941409;29;20465;-86
2022/10/03 05:39:58;;;;;;;8.65;2.53;;;;;;;12.89;100.00;100994.28;4932291;29;20035;-87
2022/10/03 05:42:36;;;;;;;6.75;3.13;;;;;;;12.89;100.00;100996.09;4934594;29;20067;-86
2022/10/03 05:45:29;;;;;;;6.05;2.50;;;;;;;12.89;100.00;101003.94;4918246;29;20063;-88
2022/10/03 05:47:57;;;;;;;3.60;2.53;;;;;;;12.94;100.00;101006.94;4931882;29;20039;-88
2022/10/03 05:50:35;;;;;;;4.25;2.45;;;;;;;12.98;100.00;101007.47;4916046;29;20555;-88
2022/10/03 05:53:41;;;;;;;3.95;1.90;;;;;;;13.05;100.00;101009.34;5015712;28;20052;-87
2022/10/03 05:56:30;;;;;;;2.67;2.13;;;;;;;13.14;100.00;101012.88;5049398;28;20497;-88
2022/10/03 05:59:33;;;;;;;5.25;2.47;;;;;;;13.18;100.00;101016.88;5052119;28;20028;-87
2022/10/03 06:02:16;;;;;;;4.40;1.88;;;;;;;13.27;100.00;101026.44;5047643;28;20051;-86
2022/10/03 06:05:23;;;;;;;3.33;1.58;;;;;;;13.33;100.00;101025.84;5048461;28;20033;-88
2022/10/03 06:08:07;;;;;;;;;;;;;;;13.39;100.00;101016.56;5031174;28;20043;-88
2022/10/03 06:10:45;;;;;;;5.60;1.67;;;;;;;13.50;100.00;101016.34;5033297;28;20277;-88
2022/10/03 06:13:35;;;;;;;2.63;1.42;;;;;;;13.55;100.00;101021.97;5014086;28;20041;-89
2022/10/03 06:16:31;;;;;;;5.30;1.70;;;;;;;13.61;100.00;101014.34;5045777;28;20033;-89
2022/10/03 06:19:06;;;;;;;2.47;1.65;;;;;;;13.68;100.00;101011.13;5052014;28;20037;-87
2022/10/03 06:21:41;;;;;;;5.15;1.95;;;;;;;13.75;100.00;101020.00;5032663;28;20402;-86
2022/10/03 06:24:09;;;;;;;7.15;1.95;;;;;;;13.82;100.00;101015.78;5050637;28;20040;-87
2022/10/03 06:26:43;;;;;;;2.58;1.85;;;;;;;13.87;100.00;101008.31;5017897;28;20511;-84
2022/10/03 06:29:15;;;;;;;10.35;1.80;;;;;;;13.97;100.00;101023.94;5031128;28;20040;-88
2022/10/03 06:32:25;;;;;;;3.03;1.80;;;;;;;14.03;100.00;101021.53;5047669;28;20040;-85
2022/10/03 06:35:39;;;;;;;8.27;1.88;;;;;;;14.11;100.00;101011.09;4988504;28;20412;-87
2022/10/03 06:38:22;;;;;;;2.85;1.08;;;;;;;14.21;100.00;101006.56;4968624;28;20053;-84
2022/10/03 06:41:14;;;;;;;3.45;0.93;;;;;;;14.31;100.00;101010.88;4968672;28;20043;-85
2022/10/03 06:44:10;;;;;;;1.30;0.77;;;;;;;14.45;100.00;101018.19;4969831;28;20059;-87
2022/10/03 06:46:44;;;;;;;3.67;0.55;;;;;;;14.49;100.00;101019.53;4979409;28;20051;-86
2022/10/03 06:49:34;;;;;;;2.20;0.43;;;;;;;14.55;100.00;101014.50;4969326;28;20113;-87
2022/10/03 06:52:06;;;;;;;1.10;0.38;;;;;;;14.62;100.00;101012.06;4988826;28;20121;-86
2022/10/03 06:55:06;;;;;;;1.95;0.45;;;;;;;14.71;100.00;101008.47;4988848;28;20062;-87
2022/10/03 06:57:56;;;;;;;2.08;0.60;;;;;;;14.77;100.00;101005.22;4988879;28;20042;-87
2022/10/03 07:00:47;;;;;;;0.63;0.43;;;;;;;14.80;100.00;101007.53;4982859;28;20042;-86
2022/10/03 07:03:34;;;;;;;3.58;0.52;;;;;;;14.78;100.00;101009.47;4929269;29;20583;-88
2022/10/03 07:06:19;;;;;;;1.02;0.40;;;;;;;14.83;100.00;101007.22;4949718;28;20426;-88
2022/10/03 07:09:11;;;;;;;4.25;0.40;;;;;;;14.86;100.00;101012.13;4932254;29;20062;-86
2022/10/03 07:12:06;;;;;;;5.10;0.85;;;;;;;14.90;100.00;101007.41;4948798;29;20054;-87
2022/10/03 07:14:54;;;;;;;2.55;0.45;;;;;;;14.92;100.00;101015.94;4947388;29;20146;-86
2022/10/03 07:17:39;;;;;;;3.25;0.60;;;;;;;14.96;100.00;101011.19;4937263;29;20050;-88
2022/10/03 07:20:10;;;;;;;1.30;0.43;;;;;;;15.07;100.00;101013.53;4948578;29;20039;-86
2022/10/03 07:22:48;;;;;;;3.45;0.60;;;;;;;15.15;100.00;101009.09;4932580;29;20129;-88
2022/10/03 07:25:23;;;;;;;1.15;0.50;;;;;;;15.22;100.00;101019.75;4929271;29;20043;-87
2022/10/03 07:28:06;;;;;;;1.30;0.40;;;;;;;15.28;100.00;101019.94;4932672;29;20129;-84
2022/10/03 07:30:56;;;;;;;2.63;0.55;;;;;;;15.39;100.00;101016.19;4931783;28;20042;-84
2022/10/03 07:33:58;;;;;;;3.60;0.40;;;;;;;15.48;100.00;101011.78;4965128;28;20085;-88
2022/10/03 07:39:28;;;;;;;1.23;0.60;;;;;;;15.62;100.00;101018.19;4954414;28;20324;-86
2022/10/03 07:42:05;;;;;;;3.05;0.30;;;;;;;15.65;100.00;101025.75;5029815;28;20377;-87
2022/10/03 07:45:04;;;;;;;4.40;0.60;;;;;;;15.71;100.00;101033.78;5027865;28;20033;-85
2022/10/03 07:48:01;;;;;;;1.80;0.63;;;;;;;15.73;100.00;101038.88;5041992;28;20521;-84
2022/10/03 07:51:04;;;;;;;2.17;0.52;;;;;;;15.70;100.00;101037.41;5041446;28;20120;-83
2022/10/03 07:53:51;;;;;;;3.85;0.70;;;;;;;15.66;100.00;101030.84;5029218;28;20041;-88
2022/10/03 07:56:22;;;;;;;3.25;0.63;;;;;;;15.73;100.00;101033.63;5039837;28;20037;-86
2022/10/03 07:59:11;;;;;;;2.47;0.43;;;;;;;15.74;100.00;101032.66;5032303;28;20036;-87
2022/10/03 08:01:41;;;;;;;2.47;0.73;;;;;;;15.74;100.00;101040.53;5036587;28;20071;-85
2022/10/03 08:04:47;;;;;;;1.40;0.65;;;;;;;15.83;100.00;101032.50;5030119;28;20116;-83
2022/10/03 08:07:19;;;;;;;3.72;0.30;;;;;;;16.03;100.00;101040.03;4992090;28;20095;-85
2022/10/03 08:10:00;;;;;;;2.75;0.30;;;;;;;16.13;100.00;101038.84;5030551;28;20089;-86
2022/10/03 08:12:31;;;;;;;2.05;0.40;;;;;;;16.10;100.00;101039.19;5029056;28;20044;-87
2022/10/03 08:15:09;;;;;;;1.75;0.30;;;;;;;16.27;100.00;101040.81;5017436;28;20033;-83
2022/10/03 08:17:56;;;;;;;2.05;0.30;;;;;;;16.29;100.00;101042.44;5045078;28;20465;-86
2022/10/03 08:20:30;;;;;;;4.30;0.80;;;;;;;16.24;100.00;101041.13;5035574;28;20056;-84
2022/10/03 08:23:28;;;;;;;0.85;0.30;;;;;;;16.49;100.00;101043.72;5033145;28;20037;-85
2022/10/03 08:26:32;;;;;;;2.25;0.30;;;;;;;16.54;100.00;101046.66;5006163;28;20038;-84
2022/10/03 08:29:19;;;;;;;0.60;0.30;;;;;;;16.90;99.36;101042.59;5038958;28;20420;-85
2022/10/03 08:32:04;;;;;;;1.00;0.20;;;;;;;17.00;100.00;101052.94;5028543;28;20048;-83
2022/10/03 08:34:56;;;;;;;2.22;0.60;;;;;;;17.01;99.85;101048.47;5039816;28;20052;-83
2022/10/03 08:37:40;;;;;;;3.13;0.20;;;;;;;17.00;100.00;101058.19;5043700;28;20075;-86
2022/10/03 08:40:28;;;;;;;3.95;0.38;;;;;;;16.98;100.00;101057.53;5026986;28;20425;-85
2022/10/03 08:43:27;;;;;;;1.13;0.40;;;;;;;17.05;100.00;101055.00;5042790;28;20067;-84
2022/10/03 08:46:30;;;;;;;1.08;0.20;;;;;;;17.02;100.00;101052.72;5031839;28;20204;-85
2022/10/03 08:49:01;;;;;;;1.88;0.80;;;;;;;17.13;100.00;101062.88;5036955;28;20384;-83
2022/10/03 08:52:00;;;;;;;0.80;0.40;;;;;;;17.09;100.00;101061.59;5044959;28;20036;-85
2022/10/03 08:54:38;;;;;;;0.63;0.30;;;;;;;17.06;100.00;101054.03;5029610;28;20033;-85
2022/10/03 08:57:32;;;;;;;5.88;0.30;;;;;;;17.27;98.64;101048.16;5029916;28;20068;-85
2022/10/03 09:00:09;;;;;;;0.65;0.20;;;;;;;17.23;100.00;101048.50;5015205;28;20033;-85
2022/10/03 09:02:59;;;;;;;1.75;0.32;;;;;;;17.24;99.70;101044.06;5039964;28;20126;-83
2022/10/03 09:05:58;;;;;;;1.95;0.30;;;;;;;17.23;100.00;101050.31;4931599;29;20058;-84
2022/10/03 09:08:42;;;;;;;2.75;0.30;;;;;;;17.21;100.00;101044.41;4943011;29;20477;-85
2022/10/03 09:11:32;;;;;;;1.13;0.30;;;;;;;17.17;100.00;101043.09;4938080;29;20051;-85
2022/10/03 09:14:33;;;;;;;1.50;0.25;;;;;;;17.13;100.00;101033.91;4927279;29;20074;-86
2022/10/03 09:17:49;;;;;;;3.22;0.20;;;;;;;17.24;100.00;101033.53;4927647;29;20130;-83
2022/10/03 09:20:45;;;;;;;2.40;0.22;;;;;;;17.35;100.00;101040.22;4907401;29;20052;-83
2022/10/03 09:23:37;;;;;;;0.50;0.20;;;;;;;17.45;100.00;101036.38;4908245;29;20088;-83
2022/10/03 09:26:24;;;;;;;1.73;0.35;;;;;;;17.43;100.00;101034.91;4908495;29;20048;-82
2022/10/03 09:29:11;;;;;;;0.93;0.25;;;;;;;17.38;100.00;101032.78;4908229;29;20171;-83
2022/10/03 09:32:22;;;;;;;0.40;0.20;;;;;;;17.38;100.00;101035.41;4907544;29;20048;-85
2022/10/03 09:35:02;;;;;;;1.80;0.20;;;;;;;17.47;100.00;101033.56;4908382;29;20504;-83
2022/10/03 09:38:04;;;;;;;2.08;0.20;;;;;;;17.47;100.00;101030.91;4908506;29;20109;-85
2022/10/03 09:40:41;;;;;;;3.15;0.20;;;;;;;17.56;100.00;101033.28;4907356;29;20161;-85
2022/10/03 09:43:32;;;;;;;2.58;0.25;;;;;;;17.61;100.00;101024.88;4917550;29;20066;-85
2022/10/03 09:46:23;;;;;;;0.90;0.20;;;;;;;17.66;100.00;101029.63;4943133;28;20071;-85
2022/10/03 09:49:20;;;;;;;2.83;0.20;;;;;;;17.66;100.00;101025.19;4946814;29;20043;-84
2022/10/03 09:51:50;;;;;;;0.65;0.20;;;;;;;17.70;100.00;101033.56;4939652;29;20039;-84
2022/10/03 09:54:18;;;;;;;1.25;0.20;;;;;;;17.67;100.00;101026.00;4943683;29;20046;-84
2022/10/03 09:57:17;;;;;;;1.15;0.17;;;;;;;17.69;100.00;101024.00;5022866;28;20052;-83
2022/10/03 10:00:05;;;;;;;4.25;0.30;;;;;;;17.73;100.00;101023.47;5031550;28;20423;-84
2022/10/03 10:02:56;;;;;;;2.13;0.20;;;;;;;17.80;100.00;101027.06;5028908;28;20462;-84
2022/10/03 10:05:33;;;;;;;1.98;0.17;;;;;;;17.97;100.00;101025.06;5030373;28;20041;-84
2022/10/03 10:08:36;;;;;;;0.25;0.10;;;;;;;18.10;98.62;101024.47;5028387;28;20033;-84
2022/10/03 10:11:07;;;;;;;2.20;0.10;;;;;;;18.12;100.00;101022.47;5034799;28;20482;-85
2022/10/03 10:13:42;;;;;;;0.90;0.17;;;;;;;18.14;99.26;101031.84;5012017;28;20044;-85
2022/10/03 10:16:33;;;;;;;0.83;0.20;;;;;;;18.22;94.77;101017.75;5029720;28;20060;-84
2022/10/03 10:19:08;;;;;;;1.20;0.20;;;;;;;18.21;97.36;101022.22;4952849;28;20415;-85
2022/10/03 10:21:44;;;;;;;2.50;0.30;;;;;;;18.27;97.45;101027.75;4950623;28;20264;-83
2022/10/03 10:24:21;;;;;;;3.90;0.20;;;;;;;18.24;97.30;101018.38;4948685;28;20121;-85
2022/10/03 10:27:11;;;;;;;1.98;0.20;;;;;;;18.23;95.24;101017.56;4948680;28;20416;-86
2022/10/03 10:29:48;;;;;;;3.28;0.45;;;;;;;18.27;97.25;101018.03;4951304;28;20093;-83
2022/10/03 10:32:20;;;;;;;2.75;0.25;;;;;;;18.33;96.54;101021.75;4948474;28;20456;-82
2022/10/03 10:35:33;;;;;;;1.08;0.20;;;;;;;18.42;88.97;101018.03;4948450;28;20049;-84
2022/10/03 10:38:29;;;;;;;2.15;0.20;;;;;;;18.57;92.58;101011.72;4917792;29;20080;-83
2022/10/03 10:41:33;;;;;;;;;;;;;;;18.66;87.35;101014.31;4920100;29;20620;-84
2022/10/03 10:44:43;;;;;;;1.30;0.28;;;;;;;18.82;86.82;101022.84;4876398;29;19923;-82
2022/10/03 10:47:45;;;;;;;1.60;0.13;;;;;;;18.72;90.63;101009.13;4885432;29;20084;-84
2022/10/03 10:50:45;;;;;;;1.13;0.15;;;;;;;18.68;92.47;101013.13;4875856;29;20044;-83
2022/10/03 10:53:47;;;;;;;0.30;0.15;;;;;;;18.60;92.21;101010.59;4886312;29;20050;-85
2022/10/03 10:56:46;;;;;;;0.70;0.10;;;;;;;18.60;93.60;101007.94;4898592;29;20047;-83
2022/10/03 10:59:59;;;;;;;2.13;0.10;;;;;;;18.62;92.62;101013.84;4917682;29;20056;-85
2022/10/03 11:02:50;;;;;;;1.40;0.30;;;;;;;18.64;96.16;101008.41;4922307;29;20196;-85
2022/10/03 11:05:53;;;;;;;0.38;0.17;;;;;;;18.66;93.05;101003.75;4917578;29;20538;-84
2022/10/03 11:08:43;;;;;;;1.35;0.25;;;;;;;18.77;94.18;101001.47;4913775;29;20050;-84
2022/10/03 11:11:36;;;;;;;0.73;0.22;;;;;;;18.85;95.22;101004.00;4921010;29;20506;-84
2022/10/03 11:14:42;;;;;;;3.13;0.20;;;;;;;18.86;93.20;100995.06;4940664;28;20102;-84
2022/10/03 11:17:19;;;;;;;0.70;0.20;;;;;;;18.88;95.88;101001.00;5011685;28;20541;-85
2022/10/03 11:20:22;;;;;;;0.85;0.20;;;;;;;18.88;92.20;100997.53;5010466;28;20486;-83
2022/10/03 11:23:16;;;;;;;0.50;0.20;;;;;;;19.01;85.19;100988.91;5028886;28;20037;-83
2022/10/03 11:26:17;;;;;;;0.90;0.10;;;;;;;19.26;85.52;100995.50;4984898;28;20512;-84
2022/10/03 11:29:11;;;;;;;1.48;0.20;;;;;;;19.25;84.21;100982.47;5014576;28;20099;-83
2022/10/03 11:32:08;;;;;;;1.90;0.40;;;;;;;19.21;88.55;100988.13;5029750;28;20037;-83
2022/10/03 11:34:42;;;;;;;0.57;0.30;;;;;;;19.22;90.28;100989.75;5029848;28;20074;-84
2022/10/03 11:37:30;;;;;;;1.65;0.10;;;;;;;19.41;88.02;100984.84;5013643;28;20054;-84
2022/10/03 11:40:34;;;;;;;1.45;0.10;;;;;;;19.38;88.05;100983.38;5034488;28;20029;-84
2022/10/03 11:43:18;;;;;;;1.60;0.10;;;;;;;19.37;88.80;100983.63;5030856;28;20056;-84
2022/10/03 11:45:53;;;;;;;1.08;0.10;;;;;;;19.32;86.38;100988.63;5035118;28;20025;-84
2022/10/03 11:48:37;;;;;;;1.23;0.20;;;;;;;19.35;83.45;100991.72;5021215;28;20047;-84
2022/10/03 11:51:11;;;;;;;0.95;0.10;;;;;;;19.39;85.83;100979.75;5027709;28;20111;-85
2022/10/03 11:53:50;;;;;;;0.77;0.20;;;;;;;19.42;84.41;100979.38;5031219;28;20398;-83
2022/10/03 11:57:01;;;;;;;2.13;0.15;;;;;;;19.33;80.27;100983.16;5027625;28;20061;-83
2022/10/03 11:59:36;;;;;;;0.20;0.10;;;;;;;19.47;83.64;100974.34;5020643;28;20455;-83
2022/10/03 12:02:28;;;;;;;0.55;0.10;;;;;;;19.61;76.32;100972.66;5017036;28;20128;-83
2022/10/03 12:04:56;;;;;;;0.32;0.10;;;;;;;19.67;80.94;100973.72;5007346;28;20493;-85
2022/10/03 12:10:39;;;;;;;0.63;0.10;;;;;;;19.80;76.91;100976.47;5039431;28;20051;-82
2022/10/03 12:13:13;;;;;;;1.52;0.00;;;;;;;19.85;76.39;100974.84;5033885;28;20047;-85
2022/10/03 12:15:45;;;;;;;0.60;0.10;;;;;;;19.74;78.82;100974.59;5015813;28;20590;-83
2022/10/03 12:18:13;;;;;;;0.52;0.10;;;;;;;19.59;79.35;100965.91;5031413;28;20493;-82
2022/10/03 12:21:05;;;;;;;0.60;0.10;;;;;;;19.74;71.35;100958.72;5031811;28;20033;-83
2022/10/03 12:23:55;;;;;;;1.23;0.10;;;;;;;19.68;70.68;100960.31;5027895;28;20694;-83
2022/10/03 12:26:46;;;;;;;0.52;0.10;;;;;;;19.83;72.96;100952.28;5027172;28;20053;-82
2022/10/03 12:29:15;;;;;;;0.50;0.10;;;;;;;20.06;75.39;100955.47;5034702;28;20056;-83
2022/10/03 12:32:00;;;;;;;0.13;0.08;;;;;;;19.89;72.37;100949.66;5032135;28;20130;-83
2022/10/03 12:34:41;;;;;;;0.33;0.10;;;;;;;19.86;75.99;100951.88;5019497;28;21311;-84
2022/10/03 12:37:12;;;;;;;0.85;0.10;;;;;;;19.88;79.54;100952.50;5034029;28;20033;-84
2022/10/03 12:39:40;;;;;;;0.38;0.10;;;;;;;19.94;73.89;100946.44;5012774;28;20032;-84
2022/10/03 12:42:29;;;;;;;0.10;0.00;;;;;;;20.17;69.74;100935.59;5027077;28;20140;-85
2022/10/03 12:45:11;;;;;;;0.30;0.10;;;;;;;20.26;73.29;100931.78;5032353;28;20492;-84
2022/10/03 12:48:12;;;;;;;0.30;0.10;;;;;;;20.33;72.70;100929.13;5016077;28;20410;-84
2022/10/03 12:51:05;;;;;;;2.58;0.10;;;;;;;20.04;70.28;100925.75;5033182;28;20099;-82
2022/10/03 12:53:40;;;;;;;0.10;0.00;;;;;;;19.96;75.60;100923.25;5029989;28;20071;-84
2022/10/03 12:56:21;;;;;;;0.88;0.05;;;;;;;19.95;73.98;100926.91;5027119;28;20040;-83